Terminal Aerodrome Forecast
Issued by NWS Milwaukee/Sullivan, WI

Home | Current Version | Previous Version | Text Only | Print | Product List | Glossary On
Versions: 1 2 3 4 5 6 7 8 9 10 11 12 13 14 15 16 17 18 19 20 21 22 23 24 25 26 27 28 29 30 31 32 33
000
FTUS43 KMKX 061120
TAFMSN
TAF
KMSN 061120Z 0612/0712 19006KT 6SM HZ OVC200
     FM061400 19008KT P6SM SCT040 OVC150
     FM061600 20011KT P6SM VCTS BKN040CB
     FM062000 19010G17KT P6SM -SHRA OVC035
     FM070100 20007KT 5SM TSRA OVC025CB
     FM070300 21006KT 3SM TSRA OVC015CB
     FM070400 27005KT 3SM SHRA OVC015
     FM070700 34010KT P6SM OVC008=

USA.gov is the U.S. government's official web portal to all federal, state and local government web resources and services.